<?xml version="1.0" encoding="UTF-8" standalone="no" ?>
<gpx xmlns="http://www.topografix.com/GPX/1/1" xmlns:xsi="http://www.w3.org/2001/XMLSchema-instance" xsi:schemaLocation="http://www.topografix.com/GPX/1/1 http://www.topografix.com/GPX/1/1/gpx.xsd" version="1.1" creator="VisuGPX - https://www.visugpx.com">
  <metadata>
    <name>Pont de Masclac - Roc Rouge</name>
    <desc><![CDATA[2017-02 - Pont de Masclac - ravin des Arcs - Roc Rouge - Bois de la Garde

[b]album[/b] : [url]https://goo.gl/photos/iWYN9Wo1ieohPWm98[/url]
[img]https://3.bp.blogspot.com/-ZvA-6Gh6rtE/WOjk7Wx737I/AAAAAAAASGU/EHRvG15sDhUuES9zlqRFjn4AWiSCwUclwCLcB/s1600/2017-02_ravin-arcs_i.JPG[/img]
[b]Idées de randonnées dans la même région[/b]
Parcours : [url]https://www.visugpx.com/membres/24856/causses/garrigues-montpellier/[/url]
Photos : [url]https://jcvertygo.blogspot.com/p/nord-montpellier.html[/url]]]></desc>
  </metadata>
  <trk>
    <name><![CDATA[Pont de Masclac - Roc Rouge_1]]></name>
    <trkseg>
      <trkpt lat="43.81197" lon="3.742">
        <ele>167.5</ele>
        <time>2017-02-20T09:54:22Z</time>
      </trkpt>
      <trkpt lat="43.81197" lon="3.74198">
        <ele>167.5</ele>
        <time>2017-02-20T09:54:27Z</time>
      </trkpt>
      <trkpt lat="43.81197" lon="3.74198">
        <ele>167.5</ele>
        <time>2017-02-20T09:54:32Z</time>
      </trkpt>
      <trkpt lat="43.81201" lon="3.74197">
        <ele>167.5</ele>
        <time>2017-02-20T09:54:53Z</time>
      </trkpt>
      <trkpt lat="43.81206" lon="3.74195">
        <ele>168.12383721632</ele>
        <time>2017-02-20T09:55:02Z</time>
      </trkpt>
      <trkpt lat="43.81206" lon="3.74195">
        <ele>168.12383721632</ele>
        <time>2017-02-20T09:55:07Z</time>
      </trkpt>
      <trkpt lat="43.81211" lon="3.74192">
        <ele>168.12383721632</ele>
        <time>2017-02-20T09:55:19Z</time>
      </trkpt>
      <trkpt lat="43.81214" lon="3.74192">
        <ele>168.12383721632</ele>
        <time>2017-02-20T09:55:32Z</time>
      </trkpt>
      <trkpt lat="43.81219" lon="3.74191">
        <ele>168.96947586282</ele>
        <time>2017-02-20T09:56:22Z</time>
      </trkpt>
      <trkpt lat="43.81225" lon="3.74189">
        <ele>168.96947586282</ele>
        <time>2017-02-20T09:57:00Z</time>
      </trkpt>
      <trkpt lat="43.81285" lon="3.74165">
        <ele>171.39255334848</ele>
        <time>2017-02-20T09:58:17Z</time>
      </trkpt>
      <trkpt lat="43.81293" lon="3.74157">
        <ele>173.38200177274</ele>
        <time>2017-02-20T09:58:17Z</time>
      </trkpt>
      <trkpt lat="43.81311" lon="3.74143">
        <ele>175.9784992277</ele>
        <time>2017-02-20T09:58:44Z</time>
      </trkpt>
      <trkpt lat="43.81332" lon="3.74133">
        <ele>178.69545820387</ele>
        <time>2017-02-20T09:59:07Z</time>
      </trkpt>
      <trkpt lat="43.81351" lon="3.7411">
        <ele>181.36301406408</ele>
        <time>2017-02-20T09:59:34Z</time>
      </trkpt>
      <trkpt lat="43.81389" lon="3.74109">
        <ele>183.2576239057</ele>
        <time>2017-02-20T10:00:02Z</time>
      </trkpt>
      <trkpt lat="43.81395" lon="3.74106">
        <ele>183.2576239057</ele>
        <time>2017-02-20T10:00:07Z</time>
      </trkpt>
      <trkpt lat="43.81564" lon="3.74083">
        <ele>182.16376114069</ele>
        <time>2017-02-20T10:03:05Z</time>
      </trkpt>
      <trkpt lat="43.81587" lon="3.7407">
        <ele>180.95430252851</ele>
        <time>2017-02-20T10:03:05Z</time>
      </trkpt>
      <trkpt lat="43.81588" lon="3.74069">
        <ele>180.95430252851</ele>
        <time>2017-02-20T10:03:06Z</time>
      </trkpt>
      <trkpt lat="43.81608" lon="3.7407">
        <ele>179.54253667932</ele>
        <time>2017-02-20T10:03:20Z</time>
      </trkpt>
      <trkpt lat="43.8161" lon="3.7407">
        <ele>179.54253667932</ele>
        <time>2017-02-20T10:03:22Z</time>
      </trkpt>
      <trkpt lat="43.81668" lon="3.74069">
        <ele>177.68687938494</ele>
        <time>2017-02-20T10:04:07Z</time>
      </trkpt>
      <trkpt lat="43.81675" lon="3.74067">
        <ele>177.68687938494</ele>
        <time>2017-02-20T10:04:12Z</time>
      </trkpt>
      <trkpt lat="43.81695" lon="3.7406">
        <ele>175.44644270198</ele>
        <time>2017-02-20T10:04:28Z</time>
      </trkpt>
      <trkpt lat="43.81748" lon="3.74016">
        <ele>172.61819395451</ele>
        <time>2017-02-20T10:05:30Z</time>
      </trkpt>
      <trkpt lat="43.81772" lon="3.74013">
        <ele>169.407598135</ele>
        <time>2017-02-20T10:05:48Z</time>
      </trkpt>
      <trkpt lat="43.81795" lon="3.73977">
        <ele>166.33301835731</ele>
        <time>2017-02-20T10:08:07Z</time>
      </trkpt>
      <trkpt lat="43.81797" lon="3.73971">
        <ele>166.33301835731</ele>
        <time>2017-02-20T10:08:12Z</time>
      </trkpt>
      <trkpt lat="43.81795" lon="3.73949">
        <ele>163.57343984709</ele>
        <time>2017-02-20T10:08:27Z</time>
      </trkpt>
      <trkpt lat="43.81781" lon="3.73921">
        <ele>161.45524008894</ele>
        <time>2017-02-20T10:09:25Z</time>
      </trkpt>
      <trkpt lat="43.81785" lon="3.73913">
        <ele>161.45524008894</ele>
        <time>2017-02-20T10:09:25Z</time>
      </trkpt>
      <trkpt lat="43.81811" lon="3.73904">
        <ele>159.85577557601</ele>
        <time>2017-02-20T10:10:00Z</time>
      </trkpt>
      <trkpt lat="43.81831" lon="3.73911">
        <ele>158.69105807319</ele>
        <time>2017-02-20T10:10:09Z</time>
      </trkpt>
      <trkpt lat="43.81837" lon="3.73905">
        <ele>158.69105807319</ele>
        <time>2017-02-20T10:10:16Z</time>
      </trkpt>
      <trkpt lat="43.81837" lon="3.73904">
        <ele>158.69105807319</ele>
        <time>2017-02-20T10:10:17Z</time>
      </trkpt>
      <trkpt lat="43.8189" lon="3.7384">
        <ele>158.65540765567</ele>
        <time>2017-02-20T10:11:34Z</time>
      </trkpt>
      <trkpt lat="43.81896" lon="3.73837">
        <ele>158.65540765567</ele>
        <time>2017-02-20T10:12:22Z</time>
      </trkpt>
      <trkpt lat="43.81898" lon="3.73833">
        <ele>159.64742681851</ele>
        <time>2017-02-20T10:12:22Z</time>
      </trkpt>
      <trkpt lat="43.81919" lon="3.73808">
        <ele>160.72150053848</ele>
        <time>2017-02-20T10:12:50Z</time>
      </trkpt>
      <trkpt lat="43.81952" lon="3.73758">
        <ele>162.47049513089</ele>
        <time>2017-02-20T10:14:07Z</time>
      </trkpt>
      <trkpt lat="43.81955" lon="3.73751">
        <ele>162.47049513089</ele>
        <time>2017-02-20T10:14:07Z</time>
      </trkpt>
      <trkpt lat="43.81958" lon="3.73744">
        <ele>164.38051945606</ele>
        <time>2017-02-20T10:14:23Z</time>
      </trkpt>
      <trkpt lat="43.81961" lon="3.73734">
        <ele>164.38051945606</ele>
        <time>2017-02-20T10:14:23Z</time>
      </trkpt>
      <trkpt lat="43.81968" lon="3.7366">
        <ele>167.31047310863</ele>
        <time>2017-02-20T10:15:24Z</time>
      </trkpt>
      <trkpt lat="43.81961" lon="3.73628">
        <ele>170.35766696831</ele>
        <time>2017-02-20T10:15:56Z</time>
      </trkpt>
      <trkpt lat="43.81957" lon="3.73593">
        <ele>173.38259923097</ele>
        <time>2017-02-20T10:16:22Z</time>
      </trkpt>
      <trkpt lat="43.81945" lon="3.73566">
        <ele>176.75092106173</ele>
        <time>2017-02-20T10:16:53Z</time>
      </trkpt>
      <trkpt lat="43.81943" lon="3.73562">
        <ele>176.75092106173</ele>
        <time>2017-02-20T10:16:53Z</time>
      </trkpt>
      <trkpt lat="43.81944" lon="3.73551">
        <ele>180.36211196633</ele>
        <time>2017-02-20T10:17:04Z</time>
      </trkpt>
      <trkpt lat="43.81949" lon="3.7354">
        <ele>184.30599257362</ele>
        <time>2017-02-20T10:17:37Z</time>
      </trkpt>
      <trkpt lat="43.82001" lon="3.73449">
        <ele>189.92826917989</ele>
        <time>2017-02-20T10:20:05Z</time>
      </trkpt>
      <trkpt lat="43.82003" lon="3.73446">
        <ele>189.92826917989</ele>
        <time>2017-02-20T10:20:05Z</time>
      </trkpt>
      <trkpt lat="43.82012" lon="3.73417">
        <ele>195.25657386188</ele>
        <time>2017-02-20T10:20:21Z</time>
      </trkpt>
      <trkpt lat="43.82012" lon="3.73417">
        <ele>195.25657386188</ele>
        <time>2017-02-20T10:20:22Z</time>
      </trkpt>
      <trkpt lat="43.82027" lon="3.73401">
        <ele>200.6946406747</ele>
        <time>2017-02-20T10:21:15Z</time>
      </trkpt>
      <trkpt lat="43.8207" lon="3.73303">
        <ele>207.46895530142</ele>
        <time>2017-02-20T10:22:42Z</time>
      </trkpt>
      <trkpt lat="43.82068" lon="3.73296">
        <ele>207.46895530142</ele>
        <time>2017-02-20T10:23:27Z</time>
      </trkpt>
      <trkpt lat="43.82066" lon="3.73293">
        <ele>207.46895530142</ele>
        <time>2017-02-20T10:23:32Z</time>
      </trkpt>
      <trkpt lat="43.82063" lon="3.73287">
        <ele>213.98484080736</ele>
        <time>2017-02-20T10:23:37Z</time>
      </trkpt>
      <trkpt lat="43.82063" lon="3.7328">
        <ele>213.98484080736</ele>
        <time>2017-02-20T10:23:42Z</time>
      </trkpt>
      <trkpt lat="43.82062" lon="3.73275">
        <ele>220.01799543521</ele>
        <time>2017-02-20T10:23:47Z</time>
      </trkpt>
      <trkpt lat="43.82058" lon="3.73271">
        <ele>220.01799543521</ele>
        <time>2017-02-20T10:23:52Z</time>
      </trkpt>
      <trkpt lat="43.82053" lon="3.7327">
        <ele>225.49604283844</ele>
        <time>2017-02-20T10:23:57Z</time>
      </trkpt>
      <trkpt lat="43.82051" lon="3.7327">
        <ele>225.49604283844</ele>
        <time>2017-02-20T10:24:02Z</time>
      </trkpt>
      <trkpt lat="43.82047" lon="3.73273">
        <ele>225.49604283844</ele>
        <time>2017-02-20T10:24:07Z</time>
      </trkpt>
      <trkpt lat="43.82044" lon="3.73277">
        <ele>230.33549925138</ele>
        <time>2017-02-20T10:24:12Z</time>
      </trkpt>
      <trkpt lat="43.82042" lon="3.73281">
        <ele>230.33549925138</ele>
        <time>2017-02-20T10:24:17Z</time>
      </trkpt>
      <trkpt lat="43.82039" lon="3.73288">
        <ele>234.5586282905</ele>
        <time>2017-02-20T10:24:22Z</time>
      </trkpt>
      <trkpt lat="43.82036" lon="3.73291">
        <ele>234.5586282905</ele>
        <time>2017-02-20T10:24:27Z</time>
      </trkpt>
      <trkpt lat="43.82032" lon="3.73294">
        <ele>234.5586282905</ele>
        <time>2017-02-20T10:24:32Z</time>
      </trkpt>
      <trkpt lat="43.8203" lon="3.73292">
        <ele>238.08740051491</ele>
        <time>2017-02-20T10:24:37Z</time>
      </trkpt>
      <trkpt lat="43.8203" lon="3.73287">
        <ele>238.08740051491</ele>
        <time>2017-02-20T10:24:42Z</time>
      </trkpt>
      <trkpt lat="43.82027" lon="3.73259">
        <ele>240.90937729028</ele>
        <time>2017-02-20T10:25:06Z</time>
      </trkpt>
      <trkpt lat="43.82027" lon="3.73251">
        <ele>240.90937729028</ele>
        <time>2017-02-20T10:25:06Z</time>
      </trkpt>
      <trkpt lat="43.82025" lon="3.73243">
        <ele>243.06099007865</ele>
        <time>2017-02-20T10:25:22Z</time>
      </trkpt>
      <trkpt lat="43.82012" lon="3.73239">
        <ele>244.55179311717</ele>
        <time>2017-02-20T10:25:41Z</time>
      </trkpt>
      <trkpt lat="43.8201" lon="3.73236">
        <ele>244.55179311717</ele>
        <time>2017-02-20T10:25:41Z</time>
      </trkpt>
      <trkpt lat="43.82005" lon="3.7322">
        <ele>245.58827966373</ele>
        <time>2017-02-20T10:26:06Z</time>
      </trkpt>
      <trkpt lat="43.82003" lon="3.73216">
        <ele>245.58827966373</ele>
        <time>2017-02-20T10:26:07Z</time>
      </trkpt>
      <trkpt lat="43.82002" lon="3.73214">
        <ele>245.58827966373</ele>
        <time>2017-02-20T10:26:23Z</time>
      </trkpt>
      <trkpt lat="43.81996" lon="3.73209">
        <ele>246.07065370478</ele>
        <time>2017-02-20T10:26:23Z</time>
      </trkpt>
      <trkpt lat="43.81995" lon="3.73208">
        <ele>246.07065370478</ele>
        <time>2017-02-20T10:26:24Z</time>
      </trkpt>
      <trkpt lat="43.8199" lon="3.73172">
        <ele>246.04350250244</ele>
        <time>2017-02-20T10:27:09Z</time>
      </trkpt>
      <trkpt lat="43.81981" lon="3.73113">
        <ele>245.58198652447</ele>
        <time>2017-02-20T10:28:21Z</time>
      </trkpt>
      <trkpt lat="43.81981" lon="3.73114">
        <ele>245.58198652447</ele>
        <time>2017-02-20T10:28:22Z</time>
      </trkpt>
      <trkpt lat="43.81979" lon="3.73111">
        <ele>245.58198652447</ele>
        <time>2017-02-20T10:28:27Z</time>
      </trkpt>
      <trkpt lat="43.81975" lon="3.73105">
        <ele>244.80408696246</ele>
        <time>2017-02-20T10:28:42Z</time>
      </trkpt>
      <trkpt lat="43.81974" lon="3.73099">
        <ele>244.80408696246</ele>
        <time>2017-02-20T10:28:50Z</time>
      </trkpt>
      <trkpt lat="43.81976" lon="3.73095">
        <ele>244.80408696246</ele>
        <time>2017-02-20T10:29:23Z</time>
      </trkpt>
      <trkpt lat="43.8197" lon="3.73082">
        <ele>243.77614587329</ele>
        <time>2017-02-20T10:31:00Z</time>
      </trkpt>
      <trkpt lat="43.81972" lon="3.73081">
        <ele>243.77614587329</ele>
        <time>2017-02-20T10:32:24Z</time>
      </trkpt>
      <trkpt lat="43.81977" lon="3.73087">
        <ele>243.77614587329</ele>
        <time>2017-02-20T10:32:35Z</time>
      </trkpt>
      <trkpt lat="43.81979" lon="3.73089">
        <ele>242.54566468248</ele>
        <time>2017-02-20T10:32:37Z</time>
      </trkpt>
      <trkpt lat="43.81979" lon="3.7309">
        <ele>242.54566468248</ele>
        <time>2017-02-20T10:32:54Z</time>
      </trkpt>
      <trkpt lat="43.81988" lon="3.73">
        <ele>240.65894716933</ele>
        <time>2017-02-20T10:35:57Z</time>
      </trkpt>
      <trkpt lat="43.81988" lon="3.73002">
        <ele>240.65894716933</ele>
        <time>2017-02-20T10:35:57Z</time>
      </trkpt>
      <trkpt lat="43.8199" lon="3.72998">
        <ele>240.65894716933</ele>
        <time>2017-02-20T10:36:24Z</time>
      </trkpt>
      <trkpt lat="43.81987" lon="3.72974">
        <ele>238.55947475853</ele>
        <time>2017-02-20T10:36:42Z</time>
      </trkpt>
      <trkpt lat="43.81986" lon="3.72968">
        <ele>238.55947475853</ele>
        <time>2017-02-20T10:37:06Z</time>
      </trkpt>
      <trkpt lat="43.81991" lon="3.72947">
        <ele>234.46916461113</ele>
        <time>2017-02-20T10:39:25Z</time>
      </trkpt>
      <trkpt lat="43.81983" lon="3.72937">
        <ele>229.98384840483</ele>
        <time>2017-02-20T10:39:49Z</time>
      </trkpt>
      <trkpt lat="43.81988" lon="3.72942">
        <ele>229.98384840483</ele>
        <time>2017-02-20T10:40:32Z</time>
      </trkpt>
      <trkpt lat="43.8199" lon="3.72938">
        <ele>229.98384840483</ele>
        <time>2017-02-20T10:40:39Z</time>
      </trkpt>
      <trkpt lat="43.81995" lon="3.72936">
        <ele>224.38990426727</ele>
        <time>2017-02-20T10:41:19Z</time>
      </trkpt>
      <trkpt lat="43.81995" lon="3.72936">
        <ele>224.38990426727</ele>
        <time>2017-02-20T10:41:26Z</time>
      </trkpt>
      <trkpt lat="43.81996" lon="3.72933">
        <ele>224.38990426727</ele>
        <time>2017-02-20T10:41:29Z</time>
      </trkpt>
      <trkpt lat="43.82014" lon="3.72915">
        <ele>218.68811608973</ele>
        <time>2017-02-20T10:42:48Z</time>
      </trkpt>
      <trkpt lat="43.82029" lon="3.72899">
        <ele>213.04626577937</ele>
        <time>2017-02-20T10:44:03Z</time>
      </trkpt>
      <trkpt lat="43.82045" lon="3.72905">
        <ele>207.73644425527</ele>
        <time>2017-02-20T10:45:02Z</time>
      </trkpt>
      <trkpt lat="43.82047" lon="3.72898">
        <ele>207.73644425527</ele>
        <time>2017-02-20T10:45:07Z</time>
      </trkpt>
      <trkpt lat="43.82047" lon="3.72895">
        <ele>207.73644425527</ele>
        <time>2017-02-20T10:45:20Z</time>
      </trkpt>
      <trkpt lat="43.82055" lon="3.7288">
        <ele>202.73697151541</ele>
        <time>2017-02-20T10:45:49Z</time>
      </trkpt>
      <trkpt lat="43.82065" lon="3.72875">
        <ele>198.11537368066</ele>
        <time>2017-02-20T10:46:08Z</time>
      </trkpt>
      <trkpt lat="43.82096" lon="3.72864">
        <ele>193.66410409822</ele>
        <time>2017-02-20T10:47:17Z</time>
      </trkpt>
      <trkpt lat="43.82096" lon="3.72865">
        <ele>193.66410409822</ele>
        <time>2017-02-20T10:47:22Z</time>
      </trkpt>
      <trkpt lat="43.82106" lon="3.72867">
        <ele>189.59206022503</ele>
        <time>2017-02-20T10:47:30Z</time>
      </trkpt>
      <trkpt lat="43.82117" lon="3.72866">
        <ele>185.95591553603</ele>
        <time>2017-02-20T10:48:08Z</time>
      </trkpt>
      <trkpt lat="43.82127" lon="3.72865">
        <ele>182.71749593633</ele>
        <time>2017-02-20T10:48:35Z</time>
      </trkpt>
      <trkpt lat="43.82137" lon="3.72841">
        <ele>179.81100000883</ele>
        <time>2017-02-20T10:49:17Z</time>
      </trkpt>
      <trkpt lat="43.82147" lon="3.72832">
        <ele>177.48320004406</ele>
        <time>2017-02-20T10:50:00Z</time>
      </trkpt>
      <trkpt lat="43.82202" lon="3.72859">
        <ele>175.5779980145</ele>
        <time>2017-02-20T10:52:52Z</time>
      </trkpt>
      <trkpt lat="43.82207" lon="3.72852">
        <ele>175.5779980145</ele>
        <time>2017-02-20T10:53:14Z</time>
      </trkpt>
      <trkpt lat="43.82211" lon="3.72851">
        <ele>173.99472626719</ele>
        <time>2017-02-20T10:53:14Z</time>
      </trkpt>
      <trkpt lat="43.82219" lon="3.72853">
        <ele>173.99472626719</ele>
        <time>2017-02-20T10:53:24Z</time>
      </trkpt>
      <trkpt lat="43.82219" lon="3.72851">
        <ele>172.53779841148</ele>
        <time>2017-02-20T10:53:27Z</time>
      </trkpt>
      <trkpt lat="43.82232" lon="3.72851">
        <ele>171.43471349531</ele>
        <time>2017-02-20T10:54:37Z</time>
      </trkpt>
      <trkpt lat="43.82239" lon="3.72855">
        <ele>171.43471349531</ele>
        <time>2017-02-20T10:54:37Z</time>
      </trkpt>
      <trkpt lat="43.82261" lon="3.72852">
        <ele>170.61735852968</ele>
        <time>2017-02-20T10:55:15Z</time>
      </trkpt>
      <trkpt lat="43.82265" lon="3.72852">
        <ele>170.61735852968</ele>
        <time>2017-02-20T10:55:15Z</time>
      </trkpt>
      <trkpt lat="43.82266" lon="3.7285">
        <ele>170.61735852968</ele>
        <time>2017-02-20T10:55:56Z</time>
      </trkpt>
      <trkpt lat="43.8232" lon="3.72839">
        <ele>170.05118852049</ele>
        <time>2017-02-20T10:57:34Z</time>
      </trkpt>
      <trkpt lat="43.8233" lon="3.72833">
        <ele>170.02263502089</ele>
        <time>2017-02-20T10:59:07Z</time>
      </trkpt>
      <trkpt lat="43.82352" lon="3.72834">
        <ele>170.11331724384</ele>
        <time>2017-02-20T11:00:09Z</time>
      </trkpt>
      <trkpt lat="43.82361" lon="3.72824">
        <ele>170.7184083051</ele>
        <time>2017-02-20T11:00:43Z</time>
      </trkpt>
      <trkpt lat="43.82362" lon="3.72812">
        <ele>170.7184083051</ele>
        <time>2017-02-20T11:00:43Z</time>
      </trkpt>
      <trkpt lat="43.82367" lon="3.72791">
        <ele>171.65160402532</ele>
        <time>2017-02-20T11:01:17Z</time>
      </trkpt>
      <trkpt lat="43.82373" lon="3.72786">
        <ele>171.65160402532</ele>
        <time>2017-02-20T11:01:17Z</time>
      </trkpt>
      <trkpt lat="43.8238" lon="3.72784">
        <ele>172.56645215183</ele>
        <time>2017-02-20T11:01:25Z</time>
      </trkpt>
      <trkpt lat="43.82396" lon="3.72767">
        <ele>173.67704131886</ele>
        <time>2017-02-20T11:01:52Z</time>
      </trkpt>
      <trkpt lat="43.82397" lon="3.72761">
        <ele>173.67704131886</ele>
        <time>2017-02-20T11:01:57Z</time>
      </trkpt>
      <trkpt lat="43.82397" lon="3.7276">
        <ele>173.67704131886</ele>
        <time>2017-02-20T11:02:04Z</time>
      </trkpt>
      <trkpt lat="43.82421" lon="3.72716">
        <ele>175.39706894448</ele>
        <time>2017-02-20T11:03:22Z</time>
      </trkpt>
      <trkpt lat="43.82429" lon="3.72705">
        <ele>177.05399272887</ele>
        <time>2017-02-20T11:04:23Z</time>
      </trkpt>
      <trkpt lat="43.82431" lon="3.72702">
        <ele>177.05399272887</ele>
        <time>2017-02-20T11:04:27Z</time>
      </trkpt>
      <trkpt lat="43.82461" lon="3.72714">
        <ele>178.41513040325</ele>
        <time>2017-02-20T11:05:23Z</time>
      </trkpt>
      <trkpt lat="43.82492" lon="3.72718">
        <ele>179.94358090111</ele>
        <time>2017-02-20T11:05:58Z</time>
      </trkpt>
      <trkpt lat="43.8257" lon="3.72733">
        <ele>182.35585840663</ele>
        <time>2017-02-20T11:07:51Z</time>
      </trkpt>
      <trkpt lat="43.82595" lon="3.72751">
        <ele>184.95764952874</ele>
        <time>2017-02-20T11:08:34Z</time>
      </trkpt>
      <trkpt lat="43.8261" lon="3.72771">
        <ele>187.43700006831</ele>
        <time>2017-02-20T11:09:08Z</time>
      </trkpt>
      <trkpt lat="43.82613" lon="3.72778">
        <ele>187.43700006831</ele>
        <time>2017-02-20T11:09:08Z</time>
      </trkpt>
      <trkpt lat="43.82635" lon="3.72813">
        <ele>190.28378823</ele>
        <time>2017-02-20T11:10:00Z</time>
      </trkpt>
      <trkpt lat="43.82646" lon="3.72828">
        <ele>193.11462459788</ele>
        <time>2017-02-20T11:10:12Z</time>
      </trkpt>
      <trkpt lat="43.82649" lon="3.72833">
        <ele>193.11462459788</ele>
        <time>2017-02-20T11:10:17Z</time>
      </trkpt>
      <trkpt lat="43.82681" lon="3.72876">
        <ele>196.16551523406</ele>
        <time>2017-02-20T11:11:21Z</time>
      </trkpt>
      <trkpt lat="43.82682" lon="3.72877">
        <ele>196.16551523406</ele>
        <time>2017-02-20T11:11:29Z</time>
      </trkpt>
      <trkpt lat="43.8273" lon="3.72946">
        <ele>199.71227946547</ele>
        <time>2017-02-20T11:13:30Z</time>
      </trkpt>
      <trkpt lat="43.82745" lon="3.72968">
        <ele>203.56223085849</ele>
        <time>2017-02-20T11:14:06Z</time>
      </trkpt>
      <trkpt lat="43.82755" lon="3.72981">
        <ele>207.60820458604</ele>
        <time>2017-02-20T11:14:17Z</time>
      </trkpt>
      <trkpt lat="43.82758" lon="3.72982">
        <ele>207.60820458604</ele>
        <time>2017-02-20T11:14:25Z</time>
      </trkpt>
      <trkpt lat="43.82765" lon="3.72986">
        <ele>211.88030073843</ele>
        <time>2017-02-20T11:14:42Z</time>
      </trkpt>
      <trkpt lat="43.8277" lon="3.72989">
        <ele>211.88030073843</ele>
        <time>2017-02-20T11:14:42Z</time>
      </trkpt>
      <trkpt lat="43.8279" lon="3.72991">
        <ele>216.8097892849</ele>
        <time>2017-02-20T11:15:07Z</time>
      </trkpt>
      <trkpt lat="43.82807" lon="3.72992">
        <ele>221.69857200082</ele>
        <time>2017-02-20T11:15:20Z</time>
      </trkpt>
      <trkpt lat="43.82807" lon="3.72994">
        <ele>221.69857200082</ele>
        <time>2017-02-20T11:15:22Z</time>
      </trkpt>
      <trkpt lat="43.82851" lon="3.72981">
        <ele>227.78957492407</ele>
        <time>2017-02-20T11:16:41Z</time>
      </trkpt>
      <trkpt lat="43.82867" lon="3.7298">
        <ele>233.67840890376</ele>
        <time>2017-02-20T11:17:04Z</time>
      </trkpt>
      <trkpt lat="43.8287" lon="3.7298">
        <ele>233.67840890376</ele>
        <time>2017-02-20T11:17:07Z</time>
      </trkpt>
      <trkpt lat="43.82876" lon="3.72978">
        <ele>239.26186958166</ele>
        <time>2017-02-20T11:17:17Z</time>
      </trkpt>
      <trkpt lat="43.8288" lon="3.72978">
        <ele>239.26186958166</ele>
        <time>2017-02-20T11:17:22Z</time>
      </trkpt>
      <trkpt lat="43.82885" lon="3.72976">
        <ele>239.26186958166</ele>
        <time>2017-02-20T11:17:32Z</time>
      </trkpt>
      <trkpt lat="43.82886" lon="3.72976">
        <ele>244.70519784724</ele>
        <time>2017-02-20T11:17:37Z</time>
      </trkpt>
      <trkpt lat="43.82891" lon="3.72977">
        <ele>244.70519784724</ele>
        <time>2017-02-20T11:17:47Z</time>
      </trkpt>
      <trkpt lat="43.82891" lon="3.72979">
        <ele>244.70519784724</ele>
        <time>2017-02-20T11:17:52Z</time>
      </trkpt>
      <trkpt lat="43.82897" lon="3.72978">
        <ele>250.40749120356</ele>
        <time>2017-02-20T11:18:15Z</time>
      </trkpt>
      <trkpt lat="43.82907" lon="3.72984">
        <ele>256.04580750264</ele>
        <time>2017-02-20T11:19:08Z</time>
      </trkpt>
      <trkpt lat="43.8291" lon="3.72985">
        <ele>256.04580750264</ele>
        <time>2017-02-20T11:19:08Z</time>
      </trkpt>
      <trkpt lat="43.82915" lon="3.7298">
        <ele>261.09076261969</ele>
        <time>2017-02-20T11:19:16Z</time>
      </trkpt>
      <trkpt lat="43.82916" lon="3.72972">
        <ele>261.09076261969</ele>
        <time>2017-02-20T11:20:22Z</time>
      </trkpt>
      <trkpt lat="43.82922" lon="3.72965">
        <ele>265.78964568258</ele>
        <time>2017-02-20T11:20:32Z</time>
      </trkpt>
      <trkpt lat="43.82924" lon="3.72961">
        <ele>265.78964568258</ele>
        <time>2017-02-20T11:20:37Z</time>
      </trkpt>
      <trkpt lat="43.82927" lon="3.72932">
        <ele>270.09891595181</ele>
        <time>2017-02-20T11:21:05Z</time>
      </trkpt>
      <trkpt lat="43.82926" lon="3.72931">
        <ele>270.09891595181</ele>
        <time>2017-02-20T11:21:06Z</time>
      </trkpt>
      <trkpt lat="43.82925" lon="3.7293">
        <ele>270.09891595181</ele>
        <time>2017-02-20T11:21:07Z</time>
      </trkpt>
      <trkpt lat="43.82912" lon="3.7292">
        <ele>273.87881156892</ele>
        <time>2017-02-20T11:21:28Z</time>
      </trkpt>
      <trkpt lat="43.82891" lon="3.72909">
        <ele>277.2036966459</ele>
        <time>2017-02-20T11:21:54Z</time>
      </trkpt>
      <trkpt lat="43.82855" lon="3.72872">
        <ele>280.25953041445</ele>
        <time>2017-02-20T11:22:31Z</time>
      </trkpt>
      <trkpt lat="43.82853" lon="3.72871">
        <ele>280.25953041445</ele>
        <time>2017-02-20T11:22:32Z</time>
      </trkpt>
      <trkpt lat="43.82851" lon="3.72863">
        <ele>280.25953041445</ele>
        <time>2017-02-20T11:22:37Z</time>
      </trkpt>
      <trkpt lat="43.82841" lon="3.72819">
        <ele>282.94573195344</ele>
        <time>2017-02-20T11:23:25Z</time>
      </trkpt>
      <trkpt lat="43.82841" lon="3.72809">
        <ele>282.94573195344</ele>
        <time>2017-02-20T11:23:25Z</time>
      </trkpt>
      <trkpt lat="43.82841" lon="3.72785">
        <ele>285.25707453327</ele>
        <time>2017-02-20T11:23:51Z</time>
      </trkpt>
      <trkpt lat="43.82842" lon="3.72774">
        <ele>285.25707453327</ele>
        <time>2017-02-20T11:23:51Z</time>
      </trkpt>
      <trkpt lat="43.82847" lon="3.72764">
        <ele>287.1468736979</ele>
        <time>2017-02-20T11:24:03Z</time>
      </trkpt>
      <trkpt lat="43.82848" lon="3.72762">
        <ele>287.1468736979</ele>
        <time>2017-02-20T11:24:08Z</time>
      </trkpt>
      <trkpt lat="43.82848" lon="3.7276">
        <ele>287.1468736979</ele>
        <time>2017-02-20T11:24:08Z</time>
      </trkpt>
      <trkpt lat="43.82854" lon="3.72754">
        <ele>288.7608525307</ele>
        <time>2017-02-20T11:24:22Z</time>
      </trkpt>
      <trkpt lat="43.82859" lon="3.72748">
        <ele>288.7608525307</ele>
        <time>2017-02-20T11:24:24Z</time>
      </trkpt>
      <trkpt lat="43.82879" lon="3.72719">
        <ele>290.3648503661</ele>
        <time>2017-02-20T11:25:08Z</time>
      </trkpt>
      <trkpt lat="43.82919" lon="3.72634">
        <ele>292.89747671181</ele>
        <time>2017-02-20T11:26:42Z</time>
      </trkpt>
      <trkpt lat="43.82923" lon="3.72619">
        <ele>295.13546004862</ele>
        <time>2017-02-20T11:27:00Z</time>
      </trkpt>
      <trkpt lat="43.82925" lon="3.72614">
        <ele>295.13546004862</ele>
        <time>2017-02-20T11:27:00Z</time>
      </trkpt>
      <trkpt lat="43.82946" lon="3.72566">
        <ele>297.34505712187</ele>
        <time>2017-02-20T11:28:10Z</time>
      </trkpt>
      <trkpt lat="43.82948" lon="3.72555">
        <ele>297.34505712187</ele>
        <time>2017-02-20T11:28:10Z</time>
      </trkpt>
      <trkpt lat="43.82949" lon="3.7251">
        <ele>299.36960103832</ele>
        <time>2017-02-20T11:28:38Z</time>
      </trkpt>
      <trkpt lat="43.82952" lon="3.72466">
        <ele>301.36740600419</ele>
        <time>2017-02-20T11:29:08Z</time>
      </trkpt>
      <trkpt lat="43.82953" lon="3.72456">
        <ele>301.36740600419</ele>
        <time>2017-02-20T11:29:08Z</time>
      </trkpt>
      <trkpt lat="43.82953" lon="3.72417">
        <ele>303.39892140763</ele>
        <time>2017-02-20T11:29:42Z</time>
      </trkpt>
      <trkpt lat="43.82953" lon="3.72416">
        <ele>303.39892140763</ele>
        <time>2017-02-20T11:29:47Z</time>
      </trkpt>
      <trkpt lat="43.82982" lon="3.72389">
        <ele>305.14547891035</ele>
        <time>2017-02-20T11:30:37Z</time>
      </trkpt>
      <trkpt lat="43.83" lon="3.72363">
        <ele>306.61550194873</ele>
        <time>2017-02-20T11:31:11Z</time>
      </trkpt>
      <trkpt lat="43.83009" lon="3.72345">
        <ele>307.65917037611</ele>
        <time>2017-02-20T11:31:29Z</time>
      </trkpt>
      <trkpt lat="43.83013" lon="3.72338">
        <ele>307.65917037611</ele>
        <time>2017-02-20T11:31:29Z</time>
      </trkpt>
      <trkpt lat="43.8302" lon="3.72329">
        <ele>308.2543028107</ele>
        <time>2017-02-20T11:31:38Z</time>
      </trkpt>
      <trkpt lat="43.83034" lon="3.72316">
        <ele>308.51141701641</ele>
        <time>2017-02-20T11:32:00Z</time>
      </trkpt>
      <trkpt lat="43.83097" lon="3.72225">
        <ele>307.82773696257</ele>
        <time>2017-02-20T11:33:22Z</time>
      </trkpt>
      <trkpt lat="43.83169" lon="3.72164">
        <ele>306.55543298629</ele>
        <time>2017-02-20T11:34:49Z</time>
      </trkpt>
      <trkpt lat="43.83174" lon="3.7216">
        <ele>306.55543298629</ele>
        <time>2017-02-20T11:34:49Z</time>
      </trkpt>
      <trkpt lat="43.83184" lon="3.72158">
        <ele>305.05127647382</ele>
        <time>2017-02-20T11:35:04Z</time>
      </trkpt>
      <trkpt lat="43.83186" lon="3.72158">
        <ele>305.05127647382</ele>
        <time>2017-02-20T11:35:04Z</time>
      </trkpt>
      <trkpt lat="43.83207" lon="3.72154">
        <ele>303.5743963672</ele>
        <time>2017-02-20T11:35:34Z</time>
      </trkpt>
      <trkpt lat="43.83216" lon="3.72158">
        <ele>302.2206458578</ele>
        <time>2017-02-20T11:35:47Z</time>
      </trkpt>
      <trkpt lat="43.83222" lon="3.72159">
        <ele>302.2206458578</ele>
        <time>2017-02-20T11:36:50Z</time>
      </trkpt>
      <trkpt lat="43.83226" lon="3.72162">
        <ele>300.64607754825</ele>
        <time>2017-02-20T11:36:50Z</time>
      </trkpt>
      <trkpt lat="43.83229" lon="3.72166">
        <ele>300.64607754825</ele>
        <time>2017-02-20T11:37:36Z</time>
      </trkpt>
      <trkpt lat="43.83244" lon="3.72173">
        <ele>298.76311527714</ele>
        <time>2017-02-20T11:39:48Z</time>
      </trkpt>
      <trkpt lat="43.83234" lon="3.72175">
        <ele>296.88045651033</ele>
        <time>2017-02-20T11:41:20Z</time>
      </trkpt>
      <trkpt lat="43.83244" lon="3.72171">
        <ele>294.8372143973</ele>
        <time>2017-02-20T11:42:31Z</time>
      </trkpt>
      <trkpt lat="43.83235" lon="3.72173">
        <ele>292.81605060516</ele>
        <time>2017-02-20T11:42:59Z</time>
      </trkpt>
      <trkpt lat="43.83234" lon="3.72173">
        <ele>292.81605060516</ele>
        <time>2017-02-20T11:42:59Z</time>
      </trkpt>
      <trkpt lat="43.83242" lon="3.72183">
        <ele>290.72654062424</ele>
        <time>2017-02-20T11:54:08Z</time>
      </trkpt>
      <trkpt lat="43.83287" lon="3.72234">
        <ele>288.35516770606</ele>
        <time>2017-02-20T11:54:34Z</time>
      </trkpt>
      <trkpt lat="43.83289" lon="3.72235">
        <ele>288.35516770606</ele>
        <time>2017-02-20T11:54:34Z</time>
      </trkpt>
      <trkpt lat="43.83302" lon="3.72256">
        <ele>285.90816081342</ele>
        <time>2017-02-20T11:55:08Z</time>
      </trkpt>
      <trkpt lat="43.83306" lon="3.72266">
        <ele>285.90816081342</ele>
        <time>2017-02-20T11:55:08Z</time>
      </trkpt>
      <trkpt lat="43.8331" lon="3.72272">
        <ele>283.25949906615</ele>
        <time>2017-02-20T11:55:25Z</time>
      </trkpt>
      <trkpt lat="43.83319" lon="3.7228">
        <ele>280.71063112013</ele>
        <time>2017-02-20T11:55:25Z</time>
      </trkpt>
      <trkpt lat="43.83322" lon="3.72282">
        <ele>280.71063112013</ele>
        <time>2017-02-20T11:55:27Z</time>
      </trkpt>
      <trkpt lat="43.83333" lon="3.72298">
        <ele>278.03588632923</ele>
        <time>2017-02-20T11:55:42Z</time>
      </trkpt>
      <trkpt lat="43.83407" lon="3.72381">
        <ele>272.36009655503</ele>
        <time>2017-02-20T11:57:40Z</time>
      </trkpt>
      <trkpt lat="43.83412" lon="3.7238">
        <ele>272.36009655503</ele>
        <time>2017-02-20T11:57:40Z</time>
      </trkpt>
      <trkpt lat="43.8342" lon="3.72372">
        <ele>267.28192698308</ele>
        <time>2017-02-20T11:59:21Z</time>
      </trkpt>
      <trkpt lat="43.83413" lon="3.72377">
        <ele>267.28192698308</ele>
        <time>2017-02-20T11:59:21Z</time>
      </trkpt>
      <trkpt lat="43.83399" lon="3.72379">
        <ele>262.81903087789</ele>
        <time>2017-02-20T11:59:42Z</time>
      </trkpt>
      <trkpt lat="43.834" lon="3.72375">
        <ele>262.81903087789</ele>
        <time>2017-02-20T11:59:47Z</time>
      </trkpt>
      <trkpt lat="43.83393" lon="3.72365">
        <ele>258.71183478549</ele>
        <time>2017-02-20T12:00:02Z</time>
      </trkpt>
      <trkpt lat="43.83384" lon="3.72352">
        <ele>255.03548047532</ele>
        <time>2017-02-20T12:00:27Z</time>
      </trkpt>
      <trkpt lat="43.83377" lon="3.72346">
        <ele>255.03548047532</ele>
        <time>2017-02-20T12:00:27Z</time>
      </trkpt>
      <trkpt lat="43.83367" lon="3.72344">
        <ele>251.80031472005</ele>
        <time>2017-02-20T12:00:40Z</time>
      </trkpt>
      <trkpt lat="43.83357" lon="3.72338">
        <ele>248.9566122073</ele>
        <time>2017-02-20T12:00:43Z</time>
      </trkpt>
      <trkpt lat="43.83277" lon="3.72233">
        <ele>248.114095024</ele>
        <time>2017-02-20T12:02:54Z</time>
      </trkpt>
      <trkpt lat="43.83253" lon="3.72201">
        <ele>247.90472438702</ele>
        <time>2017-02-20T12:03:24Z</time>
      </trkpt>
      <trkpt lat="43.83248" lon="3.72193">
        <ele>247.90472438702</ele>
        <time>2017-02-20T12:03:28Z</time>
      </trkpt>
      <trkpt lat="43.83231" lon="3.72172">
        <ele>248.29816636657</ele>
        <time>2017-02-20T12:03:47Z</time>
      </trkpt>
      <trkpt lat="43.8316" lon="3.72171">
        <ele>250.04246412071</ele>
        <time>2017-02-20T12:05:15Z</time>
      </trkpt>
      <trkpt lat="43.83149" lon="3.72174">
        <ele>251.8233770377</ele>
        <time>2017-02-20T12:05:15Z</time>
      </trkpt>
      <trkpt lat="43.83121" lon="3.72184">
        <ele>253.6910050228</ele>
        <time>2017-02-20T12:05:53Z</time>
      </trkpt>
      <trkpt lat="43.83087" lon="3.7223">
        <ele>255.86418605746</ele>
        <time>2017-02-20T12:06:28Z</time>
      </trkpt>
      <trkpt lat="43.83085" lon="3.72234">
        <ele>255.86418605746</ele>
        <time>2017-02-20T12:06:28Z</time>
      </trkpt>
      <trkpt lat="43.83079" lon="3.72248">
        <ele>258.11224475581</ele>
        <time>2017-02-20T12:07:27Z</time>
      </trkpt>
      <trkpt lat="43.83071" lon="3.72254">
        <ele>260.27868728508</ele>
        <time>2017-02-20T12:07:27Z</time>
      </trkpt>
      <trkpt lat="43.83061" lon="3.72261">
        <ele>262.29063688105</ele>
        <time>2017-02-20T12:07:42Z</time>
      </trkpt>
      <trkpt lat="43.83057" lon="3.72267">
        <ele>262.29063688105</ele>
        <time>2017-02-20T12:07:43Z</time>
      </trkpt>
      <trkpt lat="43.83056" lon="3.72268">
        <ele>262.29063688105</ele>
        <time>2017-02-20T12:07:43Z</time>
      </trkpt>
      <trkpt lat="43.82965" lon="3.724">
        <ele>265.30583718193</ele>
        <time>2017-02-20T12:10:09Z</time>
      </trkpt>
      <trkpt lat="43.82964" lon="3.72401">
        <ele>265.30583718193</ele>
        <time>2017-02-20T12:10:12Z</time>
      </trkpt>
      <trkpt lat="43.8294" lon="3.72391">
        <ele>268.26119019562</ele>
        <time>2017-02-20T12:11:00Z</time>
      </trkpt>
      <trkpt lat="43.8294" lon="3.72391">
        <ele>268.26119019562</ele>
        <time>2017-02-20T12:11:02Z</time>
      </trkpt>
      <trkpt lat="43.8294" lon="3.7239">
        <ele>268.26119019562</ele>
        <time>2017-02-20T12:11:07Z</time>
      </trkpt>
      <trkpt lat="43.82931" lon="3.72364">
        <ele>271.07971334396</ele>
        <time>2017-02-20T12:11:50Z</time>
      </trkpt>
      <trkpt lat="43.82922" lon="3.72317">
        <ele>273.21485628629</ele>
        <time>2017-02-20T12:13:07Z</time>
      </trkpt>
      <trkpt lat="43.82919" lon="3.72311">
        <ele>273.21485628629</ele>
        <time>2017-02-20T12:13:07Z</time>
      </trkpt>
      <trkpt lat="43.82876" lon="3.72272">
        <ele>274.0612501679</ele>
        <time>2017-02-20T12:14:25Z</time>
      </trkpt>
      <trkpt lat="43.82863" lon="3.72234">
        <ele>274.01276648046</ele>
        <time>2017-02-20T12:15:06Z</time>
      </trkpt>
      <trkpt lat="43.82846" lon="3.72234">
        <ele>273.58098506189</ele>
        <time>2017-02-20T12:15:30Z</time>
      </trkpt>
      <trkpt lat="43.82825" lon="3.72238">
        <ele>272.65014377523</ele>
        <time>2017-02-20T12:15:50Z</time>
      </trkpt>
      <trkpt lat="43.82824" lon="3.72237">
        <ele>272.65014377523</ele>
        <time>2017-02-20T12:15:52Z</time>
      </trkpt>
      <trkpt lat="43.82819" lon="3.72233">
        <ele>272.65014377523</ele>
        <time>2017-02-20T12:16:09Z</time>
      </trkpt>
      <trkpt lat="43.82798" lon="3.72231">
        <ele>271.20087465297</ele>
        <time>2017-02-20T12:16:33Z</time>
      </trkpt>
      <trkpt lat="43.82796" lon="3.7223">
        <ele>271.20087465297</ele>
        <time>2017-02-20T12:16:33Z</time>
      </trkpt>
      <trkpt lat="43.82781" lon="3.72208">
        <ele>269.6490388955</ele>
        <time>2017-02-20T12:17:05Z</time>
      </trkpt>
      <trkpt lat="43.82767" lon="3.722">
        <ele>268.10643090102</ele>
        <time>2017-02-20T12:17:22Z</time>
      </trkpt>
      <trkpt lat="43.82735" lon="3.72193">
        <ele>266.43161488665</ele>
        <time>2017-02-20T12:18:27Z</time>
      </trkpt>
      <trkpt lat="43.82715" lon="3.72193">
        <ele>265.0559394953</ele>
        <time>2017-02-20T12:19:14Z</time>
      </trkpt>
      <trkpt lat="43.82696" lon="3.72189">
        <ele>263.67205984829</ele>
        <time>2017-02-20T12:19:49Z</time>
      </trkpt>
      <trkpt lat="43.82696" lon="3.72189">
        <ele>263.67205984829</ele>
        <time>2017-02-20T12:19:52Z</time>
      </trkpt>
      <trkpt lat="43.82695" lon="3.72189">
        <ele>263.67205984829</ele>
        <time>2017-02-20T12:20:07Z</time>
      </trkpt>
      <trkpt lat="43.8269" lon="3.72204">
        <ele>261.96638071285</ele>
        <time>2017-02-20T12:21:35Z</time>
      </trkpt>
      <trkpt lat="43.82691" lon="3.722">
        <ele>261.96638071285</ele>
        <time>2017-02-20T12:22:56Z</time>
      </trkpt>
      <trkpt lat="43.82686" lon="3.72202">
        <ele>261.96638071285</ele>
        <time>2017-02-20T12:25:26Z</time>
      </trkpt>
      <trkpt lat="43.82689" lon="3.72205">
        <ele>260.09595459998</ele>
        <time>2017-02-20T12:28:34Z</time>
      </trkpt>
      <trkpt lat="43.82691" lon="3.72204">
        <ele>260.09595459998</ele>
        <time>2017-02-20T12:28:42Z</time>
      </trkpt>
      <trkpt lat="43.82691" lon="3.72206">
        <ele>260.09595459998</ele>
        <time>2017-02-20T12:28:47Z</time>
      </trkpt>
      <trkpt lat="43.82689" lon="3.72202">
        <ele>260.09595459998</ele>
        <time>2017-02-20T12:30:27Z</time>
      </trkpt>
      <trkpt lat="43.82702" lon="3.72197">
        <ele>258.43729242652</ele>
        <time>2017-02-20T12:31:02Z</time>
      </trkpt>
      <trkpt lat="43.82705" lon="3.72197">
        <ele>258.43729242652</ele>
        <time>2017-02-20T12:31:07Z</time>
      </trkpt>
      <trkpt lat="43.82711" lon="3.72195">
        <ele>258.43729242652</ele>
        <time>2017-02-20T12:31:26Z</time>
      </trkpt>
      <trkpt lat="43.82711" lon="3.722">
        <ele>257.15125634621</ele>
        <time>2017-02-20T12:31:26Z</time>
      </trkpt>
      <trkpt lat="43.8271" lon="3.72202">
        <ele>257.15125634621</ele>
        <time>2017-02-20T12:31:43Z</time>
      </trkpt>
      <trkpt lat="43.82716" lon="3.72192">
        <ele>256.41461213295</ele>
        <time>2017-02-20T12:32:40Z</time>
      </trkpt>
      <trkpt lat="43.82732" lon="3.72194">
        <ele>255.81309538522</ele>
        <time>2017-02-20T12:33:05Z</time>
      </trkpt>
      <trkpt lat="43.82733" lon="3.72195">
        <ele>255.81309538522</ele>
        <time>2017-02-20T12:33:07Z</time>
      </trkpt>
      <trkpt lat="43.8274" lon="3.72197">
        <ele>255.81309538522</ele>
        <time>2017-02-20T12:33:20Z</time>
      </trkpt>
      <trkpt lat="43.82742" lon="3.72198">
        <ele>255.29389168175</ele>
        <time>2017-02-20T12:33:22Z</time>
      </trkpt>
      <trkpt lat="43.82747" lon="3.72198">
        <ele>255.29389168175</ele>
        <time>2017-02-20T12:33:37Z</time>
      </trkpt>
      <trkpt lat="43.82747" lon="3.72196">
        <ele>255.29389168175</ele>
        <time>2017-02-20T12:33:39Z</time>
      </trkpt>
      <trkpt lat="43.82766" lon="3.72202">
        <ele>254.77895706704</ele>
        <time>2017-02-20T12:34:04Z</time>
      </trkpt>
      <trkpt lat="43.8277" lon="3.72203">
        <ele>254.77895706704</ele>
        <time>2017-02-20T12:34:07Z</time>
      </trkpt>
      <trkpt lat="43.82777" lon="3.72218">
        <ele>254.32561640966</ele>
        <time>2017-02-20T12:34:40Z</time>
      </trkpt>
      <trkpt lat="43.82784" lon="3.72223">
        <ele>254.32561640966</ele>
        <time>2017-02-20T12:34:40Z</time>
      </trkpt>
      <trkpt lat="43.82831" lon="3.72236">
        <ele>253.92911806145</ele>
        <time>2017-02-20T12:35:39Z</time>
      </trkpt>
      <trkpt lat="43.82838" lon="3.72237">
        <ele>253.92911806145</ele>
        <time>2017-02-20T12:35:39Z</time>
      </trkpt>
      <trkpt lat="43.82885" lon="3.72283">
        <ele>255.68888347313</ele>
        <time>2017-02-20T12:37:02Z</time>
      </trkpt>
      <trkpt lat="43.82936" lon="3.72393">
        <ele>259.95881467415</ele>
        <time>2017-02-20T12:39:03Z</time>
      </trkpt>
      <trkpt lat="43.82939" lon="3.72398">
        <ele>259.95881467415</ele>
        <time>2017-02-20T12:39:07Z</time>
      </trkpt>
      <trkpt lat="43.8294" lon="3.72403">
        <ele>259.95881467415</ele>
        <time>2017-02-20T12:39:12Z</time>
      </trkpt>
      <trkpt lat="43.82942" lon="3.72406">
        <ele>264.23519173396</ele>
        <time>2017-02-20T12:39:17Z</time>
      </trkpt>
      <trkpt lat="43.82946" lon="3.7241">
        <ele>264.23519173396</ele>
        <time>2017-02-20T12:39:22Z</time>
      </trkpt>
      <trkpt lat="43.82946" lon="3.72413">
        <ele>264.23519173396</ele>
        <time>2017-02-20T12:39:27Z</time>
      </trkpt>
      <trkpt lat="43.82941" lon="3.7244">
        <ele>268.33107082719</ele>
        <time>2017-02-20T12:39:45Z</time>
      </trkpt>
      <trkpt lat="43.82941" lon="3.72441">
        <ele>268.33107082719</ele>
        <time>2017-02-20T12:39:49Z</time>
      </trkpt>
      <trkpt lat="43.82936" lon="3.72501">
        <ele>272.24674189723</ele>
        <time>2017-02-20T12:40:36Z</time>
      </trkpt>
      <trkpt lat="43.82931" lon="3.72557">
        <ele>276.17041956114</ele>
        <time>2017-02-20T12:41:03Z</time>
      </trkpt>
      <trkpt lat="43.82924" lon="3.72588">
        <ele>279.77220677821</ele>
        <time>2017-02-20T12:41:26Z</time>
      </trkpt>
      <trkpt lat="43.82915" lon="3.72603">
        <ele>282.97807381207</ele>
        <time>2017-02-20T12:41:41Z</time>
      </trkpt>
      <trkpt lat="43.82909" lon="3.72628">
        <ele>285.79276918609</ele>
        <time>2017-02-20T12:41:53Z</time>
      </trkpt>
      <trkpt lat="43.82864" lon="3.72718">
        <ele>287.65994552918</ele>
        <time>2017-02-20T12:43:02Z</time>
      </trkpt>
      <trkpt lat="43.82836" lon="3.72768">
        <ele>288.00933544595</ele>
        <time>2017-02-20T12:43:50Z</time>
      </trkpt>
      <trkpt lat="43.82833" lon="3.72779">
        <ele>288.00933544595</ele>
        <time>2017-02-20T12:43:50Z</time>
      </trkpt>
      <trkpt lat="43.82852" lon="3.72877">
        <ele>286.89346235918</ele>
        <time>2017-02-20T12:45:00Z</time>
      </trkpt>
      <trkpt lat="43.82854" lon="3.72881">
        <ele>286.89346235918</ele>
        <time>2017-02-20T12:45:02Z</time>
      </trkpt>
      <trkpt lat="43.82896" lon="3.72921">
        <ele>285.3020115703</ele>
        <time>2017-02-20T12:45:55Z</time>
      </trkpt>
      <trkpt lat="43.82904" lon="3.72924">
        <ele>285.3020115703</ele>
        <time>2017-02-20T12:46:00Z</time>
      </trkpt>
      <trkpt lat="43.82914" lon="3.7296">
        <ele>283.60584658072</ele>
        <time>2017-02-20T12:46:35Z</time>
      </trkpt>
      <trkpt lat="43.82907" lon="3.72999">
        <ele>282.01932671701</ele>
        <time>2017-02-20T12:47:00Z</time>
      </trkpt>
      <trkpt lat="43.82878" lon="3.73079">
        <ele>280.51030011052</ele>
        <time>2017-02-20T12:48:00Z</time>
      </trkpt>
      <trkpt lat="43.82882" lon="3.73092">
        <ele>278.9335678505</ele>
        <time>2017-02-20T12:48:02Z</time>
      </trkpt>
      <trkpt lat="43.82882" lon="3.731">
        <ele>278.9335678505</ele>
        <time>2017-02-20T12:48:22Z</time>
      </trkpt>
      <trkpt lat="43.82883" lon="3.73107">
        <ele>277.48631882374</ele>
        <time>2017-02-20T12:48:27Z</time>
      </trkpt>
      <trkpt lat="43.82881" lon="3.73113">
        <ele>277.48631882374</ele>
        <time>2017-02-20T12:48:32Z</time>
      </trkpt>
      <trkpt lat="43.82878" lon="3.73116">
        <ele>277.48631882374</ele>
        <time>2017-02-20T12:48:37Z</time>
      </trkpt>
      <trkpt lat="43.82876" lon="3.73113">
        <ele>276.12037115405</ele>
        <time>2017-02-20T12:48:42Z</time>
      </trkpt>
      <trkpt lat="43.82873" lon="3.73108">
        <ele>276.12037115405</ele>
        <time>2017-02-20T12:48:47Z</time>
      </trkpt>
      <trkpt lat="43.82868" lon="3.73103">
        <ele>274.80530324216</ele>
        <time>2017-02-20T12:48:52Z</time>
      </trkpt>
      <trkpt lat="43.82863" lon="3.73099">
        <ele>274.80530324216</ele>
        <time>2017-02-20T12:48:57Z</time>
      </trkpt>
      <trkpt lat="43.82856" lon="3.73093">
        <ele>273.52721810221</ele>
        <time>2017-02-20T12:49:02Z</time>
      </trkpt>
      <trkpt lat="43.82849" lon="3.7309">
        <ele>273.52721810221</ele>
        <time>2017-02-20T12:49:07Z</time>
      </trkpt>
      <trkpt lat="43.82841" lon="3.73086">
        <ele>272.30196500123</ele>
        <time>2017-02-20T12:49:12Z</time>
      </trkpt>
      <trkpt lat="43.82835" lon="3.73085">
        <ele>272.30196500123</ele>
        <time>2017-02-20T12:49:17Z</time>
      </trkpt>
      <trkpt lat="43.82831" lon="3.73082">
        <ele>271.10084114811</ele>
        <time>2017-02-20T12:49:50Z</time>
      </trkpt>
      <trkpt lat="43.82798" lon="3.73077">
        <ele>270.02686689406</ele>
        <time>2017-02-20T12:49:50Z</time>
      </trkpt>
      <trkpt lat="43.82731" lon="3.73042">
        <ele>268.65630914731</ele>
        <time>2017-02-20T12:51:00Z</time>
      </trkpt>
      <trkpt lat="43.8269" lon="3.73008">
        <ele>267.08733343743</ele>
        <time>2017-02-20T12:51:33Z</time>
      </trkpt>
      <trkpt lat="43.8268" lon="3.73003">
        <ele>265.58433560798</ele>
        <time>2017-02-20T12:51:33Z</time>
      </trkpt>
      <trkpt lat="43.82652" lon="3.72985">
        <ele>263.77236709891</ele>
        <time>2017-02-20T12:52:07Z</time>
      </trkpt>
      <trkpt lat="43.82645" lon="3.72984">
        <ele>263.77236709891</ele>
        <time>2017-02-20T12:52:07Z</time>
      </trkpt>
      <trkpt lat="43.82581" lon="3.72999">
        <ele>261.43451977062</ele>
        <time>2017-02-20T12:53:02Z</time>
      </trkpt>
      <trkpt lat="43.82578" lon="3.73001">
        <ele>261.43451977062</ele>
        <time>2017-02-20T12:53:07Z</time>
      </trkpt>
      <trkpt lat="43.82557" lon="3.73012">
        <ele>259.14941364294</ele>
        <time>2017-02-20T12:53:29Z</time>
      </trkpt>
      <trkpt lat="43.82544" lon="3.7302">
        <ele>256.97735544205</ele>
        <time>2017-02-20T12:53:29Z</time>
      </trkpt>
      <trkpt lat="43.82536" lon="3.73026">
        <ele>254.93056648119</ele>
        <time>2017-02-20T12:53:46Z</time>
      </trkpt>
      <trkpt lat="43.82476" lon="3.73075">
        <ele>252.58756942326</ele>
        <time>2017-02-20T12:54:42Z</time>
      </trkpt>
      <trkpt lat="43.8247" lon="3.73082">
        <ele>252.58756942326</ele>
        <time>2017-02-20T12:54:42Z</time>
      </trkpt>
      <trkpt lat="43.82452" lon="3.73103">
        <ele>250.36557656547</ele>
        <time>2017-02-20T12:55:08Z</time>
      </trkpt>
      <trkpt lat="43.82447" lon="3.7311">
        <ele>250.36557656547</ele>
        <time>2017-02-20T12:55:08Z</time>
      </trkpt>
      <trkpt lat="43.82407" lon="3.73147">
        <ele>248.30481210115</ele>
        <time>2017-02-20T12:56:00Z</time>
      </trkpt>
      <trkpt lat="43.82397" lon="3.73159">
        <ele>246.52841955042</ele>
        <time>2017-02-20T12:56:00Z</time>
      </trkpt>
      <trkpt lat="43.8236" lon="3.73201">
        <ele>244.73163081768</ele>
        <time>2017-02-20T12:56:58Z</time>
      </trkpt>
      <trkpt lat="43.82343" lon="3.73216">
        <ele>243.07871930666</ele>
        <time>2017-02-20T12:56:58Z</time>
      </trkpt>
      <trkpt lat="43.82337" lon="3.73224">
        <ele>243.07871930666</ele>
        <time>2017-02-20T12:57:07Z</time>
      </trkpt>
      <trkpt lat="43.82333" lon="3.7323">
        <ele>241.44752630565</ele>
        <time>2017-02-20T12:57:12Z</time>
      </trkpt>
      <trkpt lat="43.82297" lon="3.73289">
        <ele>239.8111225845</ele>
        <time>2017-02-20T12:58:06Z</time>
      </trkpt>
      <trkpt lat="43.82282" lon="3.73312">
        <ele>238.25971141211</ele>
        <time>2017-02-20T12:58:30Z</time>
      </trkpt>
      <trkpt lat="43.82207" lon="3.73446">
        <ele>236.64590559179</ele>
        <time>2017-02-20T13:00:03Z</time>
      </trkpt>
      <trkpt lat="43.82202" lon="3.73462">
        <ele>235.2655077915</ele>
        <time>2017-02-20T13:00:18Z</time>
      </trkpt>
      <trkpt lat="43.82198" lon="3.73473">
        <ele>234.06033822347</ele>
        <time>2017-02-20T13:00:19Z</time>
      </trkpt>
      <trkpt lat="43.82184" lon="3.73479">
        <ele>232.81733859002</ele>
        <time>2017-02-20T13:00:39Z</time>
      </trkpt>
      <trkpt lat="43.82183" lon="3.73482">
        <ele>232.81733859002</ele>
        <time>2017-02-20T13:00:42Z</time>
      </trkpt>
      <trkpt lat="43.82182" lon="3.73484">
        <ele>232.81733859002</ele>
        <time>2017-02-20T13:00:47Z</time>
      </trkpt>
      <trkpt lat="43.82181" lon="3.73491">
        <ele>231.71376341282</ele>
        <time>2017-02-20T13:01:23Z</time>
      </trkpt>
      <trkpt lat="43.82181" lon="3.73502">
        <ele>231.71376341282</ele>
        <time>2017-02-20T13:01:23Z</time>
      </trkpt>
      <trkpt lat="43.82178" lon="3.73546">
        <ele>230.32247113726</ele>
        <time>2017-02-20T13:02:00Z</time>
      </trkpt>
      <trkpt lat="43.82149" lon="3.7362">
        <ele>228.62307063206</ele>
        <time>2017-02-20T13:03:11Z</time>
      </trkpt>
      <trkpt lat="43.82125" lon="3.7365">
        <ele>226.6118243482</ele>
        <time>2017-02-20T13:03:28Z</time>
      </trkpt>
      <trkpt lat="43.821" lon="3.73699">
        <ele>224.30043709929</ele>
        <time>2017-02-20T13:04:08Z</time>
      </trkpt>
      <trkpt lat="43.82068" lon="3.73769">
        <ele>221.03756453451</ele>
        <time>2017-02-20T13:05:01Z</time>
      </trkpt>
      <trkpt lat="43.82051" lon="3.73796">
        <ele>217.80747758513</ele>
        <time>2017-02-20T13:05:17Z</time>
      </trkpt>
      <trkpt lat="43.81949" lon="3.73851">
        <ele>211.9911925567</ele>
        <time>2017-02-20T13:07:26Z</time>
      </trkpt>
      <trkpt lat="43.81925" lon="3.73854">
        <ele>205.98253204007</ele>
        <time>2017-02-20T13:08:09Z</time>
      </trkpt>
      <trkpt lat="43.81903" lon="3.73867">
        <ele>200.19844861602</ele>
        <time>2017-02-20T13:08:34Z</time>
      </trkpt>
      <trkpt lat="43.81899" lon="3.73872">
        <ele>200.19844861602</ele>
        <time>2017-02-20T13:08:34Z</time>
      </trkpt>
      <trkpt lat="43.81875" lon="3.73882">
        <ele>194.33270712872</ele>
        <time>2017-02-20T13:09:13Z</time>
      </trkpt>
      <trkpt lat="43.81858" lon="3.73889">
        <ele>188.26009935157</ele>
        <time>2017-02-20T13:09:27Z</time>
      </trkpt>
      <trkpt lat="43.8185" lon="3.73888">
        <ele>188.26009935157</ele>
        <time>2017-02-20T13:09:32Z</time>
      </trkpt>
      <trkpt lat="43.81843" lon="3.73893">
        <ele>182.39816358581</ele>
        <time>2017-02-20T13:09:48Z</time>
      </trkpt>
      <trkpt lat="43.81836" lon="3.73899">
        <ele>182.39816358581</ele>
        <time>2017-02-20T13:09:48Z</time>
      </trkpt>
      <trkpt lat="43.81835" lon="3.739">
        <ele>176.94556826619</ele>
        <time>2017-02-20T13:09:49Z</time>
      </trkpt>
      <trkpt lat="43.81829" lon="3.73912">
        <ele>171.88320559182</ele>
        <time>2017-02-20T13:09:57Z</time>
      </trkpt>
      <trkpt lat="43.81828" lon="3.73917">
        <ele>171.88320559182</ele>
        <time>2017-02-20T13:10:07Z</time>
      </trkpt>
      <trkpt lat="43.81825" lon="3.73925">
        <ele>167.14875328482</ele>
        <time>2017-02-20T13:10:07Z</time>
      </trkpt>
      <trkpt lat="43.81786" lon="3.73973">
        <ele>161.51594753347</ele>
        <time>2017-02-20T13:11:06Z</time>
      </trkpt>
      <trkpt lat="43.81779" lon="3.73987">
        <ele>156.19983169883</ele>
        <time>2017-02-20T13:11:22Z</time>
      </trkpt>
      <trkpt lat="43.81769" lon="3.73999">
        <ele>151.41709412525</ele>
        <time>2017-02-20T13:12:06Z</time>
      </trkpt>
      <trkpt lat="43.81749" lon="3.74004">
        <ele>147.38110868221</ele>
        <time>2017-02-20T13:12:22Z</time>
      </trkpt>
      <trkpt lat="43.81736" lon="3.74016">
        <ele>143.92689257809</ele>
        <time>2017-02-20T13:12:44Z</time>
      </trkpt>
      <trkpt lat="43.81724" lon="3.7404">
        <ele>140.95729282487</ele>
        <time>2017-02-20T13:12:53Z</time>
      </trkpt>
      <trkpt lat="43.81705" lon="3.74049">
        <ele>138.49593319589</ele>
        <time>2017-02-20T13:13:18Z</time>
      </trkpt>
      <trkpt lat="43.81696" lon="3.7405">
        <ele>136.54859305296</ele>
        <time>2017-02-20T13:13:18Z</time>
      </trkpt>
      <trkpt lat="43.8168" lon="3.74055">
        <ele>135.06128975657</ele>
        <time>2017-02-20T13:13:32Z</time>
      </trkpt>
      <trkpt lat="43.81667" lon="3.7406">
        <ele>133.99690013168</ele>
        <time>2017-02-20T13:13:53Z</time>
      </trkpt>
      <trkpt lat="43.81611" lon="3.74065">
        <ele>133.49257580097</ele>
        <time>2017-02-20T13:14:28Z</time>
      </trkpt>
      <trkpt lat="43.81543" lon="3.74074">
        <ele>133.58718639283</ele>
        <time>2017-02-20T13:15:36Z</time>
      </trkpt>
      <trkpt lat="43.81536" lon="3.74078">
        <ele>133.58718639283</ele>
        <time>2017-02-20T13:15:36Z</time>
      </trkpt>
      <trkpt lat="43.81507" lon="3.74085">
        <ele>134.37257442649</ele>
        <time>2017-02-20T13:16:43Z</time>
      </trkpt>
      <trkpt lat="43.81433" lon="3.74068">
        <ele>135.29770771219</ele>
        <time>2017-02-20T13:16:58Z</time>
      </trkpt>
      <trkpt lat="43.81428" lon="3.74066">
        <ele>135.29770771219</ele>
        <time>2017-02-20T13:17:05Z</time>
      </trkpt>
      <trkpt lat="43.81406" lon="3.74071">
        <ele>136.34155387797</ele>
        <time>2017-02-20T13:17:29Z</time>
      </trkpt>
      <trkpt lat="43.81403" lon="3.74075">
        <ele>136.34155387797</ele>
        <time>2017-02-20T13:17:32Z</time>
      </trkpt>
      <trkpt lat="43.81396" lon="3.74088">
        <ele>137.78689854424</ele>
        <time>2017-02-20T13:17:49Z</time>
      </trkpt>
      <trkpt lat="43.81391" lon="3.74092">
        <ele>137.78689854424</ele>
        <time>2017-02-20T13:17:52Z</time>
      </trkpt>
      <trkpt lat="43.81366" lon="3.74098">
        <ele>139.75052643368</ele>
        <time>2017-02-20T13:18:21Z</time>
      </trkpt>
      <trkpt lat="43.81365" lon="3.74098">
        <ele>139.75052643368</ele>
        <time>2017-02-20T13:18:22Z</time>
      </trkpt>
      <trkpt lat="43.81353" lon="3.74102">
        <ele>141.90690247527</ele>
        <time>2017-02-20T13:18:42Z</time>
      </trkpt>
      <trkpt lat="43.81344" lon="3.74102">
        <ele>141.90690247527</ele>
        <time>2017-02-20T13:18:42Z</time>
      </trkpt>
      <trkpt lat="43.81314" lon="3.74128">
        <ele>144.38628121252</ele>
        <time>2017-02-20T13:19:21Z</time>
      </trkpt>
      <trkpt lat="43.81246" lon="3.74179">
        <ele>146.50153868919</ele>
        <time>2017-02-20T13:21:00Z</time>
      </trkpt>
      <trkpt lat="43.81219" lon="3.74185">
        <ele>148.19364421663</ele>
        <time>2017-02-20T13:21:21Z</time>
      </trkpt>
      <trkpt lat="43.81219" lon="3.74184">
        <ele>148.19364421663</ele>
        <time>2017-02-20T13:21:27Z</time>
      </trkpt>
      <trkpt lat="43.81217" lon="3.74187">
        <ele>148.19364421663</ele>
        <time>2017-02-20T13:21:32Z</time>
      </trkpt>
    </trkseg>
  </trk>
</gpx>